Pagrindinis puslapis
METAR-TAF:

METAR-TAF

Oro uostai :

Niamėjus, Nigeris

platuma: 13-29N, ilguma: 002-10E, Aukštis: 223 m

Dabartinis oras

Ataskaita buvo paskelbta 42 minutes, ne 18:00 UTC
Vėjas 6 kt iš Rytų/Šiaurės Rytų
Temperatūra 33°C
Drėgmė 7%
Slėgis 1011 hPa
Matomumas: 7000 m

METAR: DRRN 171800Z 07006KT 7000 NSC 33/M07 Q1011 NOSIG

Laikas: 19:42 (18:42 UTC)

Prognozė

Ataskaita buvo paskelbta 1 valandą ir 42 minutes, ne 17:00 UTC
Prognozė galioja nuo 17 metu 18 UTC su 18 metu 24 UTC
Vėjas 10 kt iš Rytų/Šiaurės Rytų
Matomumas 10 km arba daugiau
nėra debesų žemiau 1500 m ir nėra kamuolinių lietaus debesų
Tikimybė 40% :
Laikinai
nuo 17 metu 18 UTC su 17 metu 20 UTC
Matomumas: 4500 m
dulkės
Tapsmas
nuo 18 metu 08 UTC su 18 metu 09 UTC
Vėjas 20 kt iš Rytų
Laikinai
nuo 18 metu 09 UTC su 18 metu 12 UTC
Matomumas: 3500 m
Dulkes pustymas

TAF: DRRN 171700Z 1718/1824 06010KT CAVOK PROB40 TEMPO 1718/1720 4500 DU BECMG 1808/1809 10020KT TEMPO 1809/1812 3500 BLDU

Orai ataskaitas ir orų prognozės (METAR, TAF).

turimą stotys yra geltonos ir raudonos taškus žemėlapyje.

Perkelti pele per norėdami pamatyti stoties vardą.

Tada spustelėkite, norėdami matyti oro stebėjimo ir prognozės.

Norėdami pakeisti žemėlapį: spustelėkite ant žalios mygtukų su juodo kryžiaus žemyn,; žalią mygtuką su brūkšneliu, jei norite nutolinti; arba žalių rodyklių gretimoms žemėlapius.


METAR-TAF: